sensor_id;sensor_type;location;lat;lon;timestamp;P1;durP1;ratioP1;P2;durP2;ratioP2
67747;SDS011;54543;50.712;6.070;2023-12-28T00:01:13;9.38;;;6.38;;
67747;SDS011;54543;50.712;6.070;2023-12-28T00:03:39;13.50;;;10.60;;
67747;SDS011;54543;50.712;6.070;2023-12-28T00:06:06;10.02;;;6.90;;
67747;SDS011;54543;50.712;6.070;2023-12-28T00:08:32;6.30;;;4.57;;
67747;SDS011;54543;50.712;6.070;2023-12-28T00:10:57;6.75;;;4.45;;
67747;SDS011;54543;50.712;6.070;2023-12-28T00:13:23;5.60;;;3.65;;
67747;SDS011;54543;50.712;6.070;2023-12-28T00:15:49;6.13;;;3.90;;
67747;SDS011;54543;50.712;6.070;2023-12-28T00:18:14;7.95;;;3.90;;
67747;SDS011;54543;50.712;6.070;2023-12-28T00:20:40;5.50;;;3.20;;
67747;SDS011;54543;50.712;6.070;2023-12-28T00:23:05;4.70;;;3.00;;
67747;SDS011;54543;50.712;6.070;2023-12-28T00:25:31;5.97;;;3.63;;
67747;SDS011;54543;50.712;6.070;2023-12-28T00:27:57;5.45;;;3.25;;
67747;SDS011;54543;50.712;6.070;2023-12-28T00:30:22;5.40;;;3.17;;
67747;SDS011;54543;50.712;6.070;2023-12-28T00:32:48;4.93;;;3.25;;
67747;SDS011;54543;50.712;6.070;2023-12-28T00:35:13;4.47;;;2.63;;
67747;SDS011;54543;50.712;6.070;2023-12-28T00:37:39;4.13;;;2.70;;
67747;SDS011;54543;50.712;6.070;2023-12-28T00:40:05;5.95;;;2.50;;
67747;SDS011;54543;50.712;6.070;2023-12-28T00:42:31;4.90;;;3.25;;
67747;SDS011;54543;50.712;6.070;2023-12-28T00:44:56;4.45;;;2.85;;
67747;SDS011;54543;50.712;6.070;2023-12-28T00:47:22;4.10;;;2.22;;
67747;SDS011;54543;50.712;6.070;2023-12-28T00:49:47;4.88;;;2.42;;
67747;SDS011;54543;50.712;6.070;2023-12-28T00:52:13;4.30;;;2.67;;
67747;SDS011;54543;50.712;6.070;2023-12-28T00:54:39;4.32;;;2.78;;
67747;SDS011;54543;50.712;6.070;2023-12-28T00:57:04;3.65;;;2.20;;
67747;SDS011;54543;50.712;6.070;2023-12-28T00:59:30;4.60;;;2.70;;
67747;SDS011;54543;50.712;6.070;2023-12-28T01:01:56;3.38;;;2.47;;
67747;SDS011;54543;50.712;6.070;2023-12-28T01:04:22;6.68;;;2.70;;
67747;SDS011;54543;50.712;6.070;2023-12-28T01:06:51;3.47;;;2.30;;
67747;SDS011;54543;50.712;6.070;2023-12-28T01:09:17;4.15;;;2.63;;
67747;SDS011;54543;50.712;6.070;2023-12-28T01:11:43;4.50;;;2.70;;
67747;SDS011;54543;50.712;6.070;2023-12-28T01:14:09;4.72;;;2.72;;
67747;SDS011;54543;50.712;6.070;2023-12-28T01:16:34;3.92;;;2.28;;
67747;SDS011;54543;50.712;6.070;2023-12-28T01:19:01;4.75;;;2.70;;
67747;SDS011;54543;50.712;6.070;2023-12-28T01:21:26;4.70;;;2.35;;
67747;SDS011;54543;50.712;6.070;2023-12-28T01:23:54;2.90;;;2.15;;
67747;SDS011;54543;50.712;6.070;2023-12-28T01:26:19;3.53;;;2.28;;
67747;SDS011;54543;50.712;6.070;2023-12-28T01:28:45;4.47;;;2.55;;
67747;SDS011;54543;50.712;6.070;2023-12-28T01:31:11;4.65;;;2.72;;
67747;SDS011;54543;50.712;6.070;2023-12-28T01:33:37;4.95;;;2.38;;
67747;SDS011;54543;50.712;6.070;2023-12-28T01:36:03;4.13;;;2.60;;
67747;SDS011;54543;50.712;6.070;2023-12-28T01:38:42;5.20;;;3.03;;
67747;SDS011;54543;50.712;6.070;2023-12-28T01:41:08;5.07;;;2.53;;
67747;SDS011;54543;50.712;6.070;2023-12-28T01:43:34;4.50;;;2.72;;
67747;SDS011;54543;50.712;6.070;2023-12-28T01:45:59;3.92;;;2.42;;
67747;SDS011;54543;50.712;6.070;2023-12-28T01:48:25;3.67;;;2.47;;
67747;SDS011;54543;50.712;6.070;2023-12-28T01:50:51;4.22;;;2.50;;
67747;SDS011;54543;50.712;6.070;2023-12-28T01:53:17;4.40;;;2.67;;
67747;SDS011;54543;50.712;6.070;2023-12-28T01:55:43;4.13;;;2.38;;
67747;SDS011;54543;50.712;6.070;2023-12-28T01:58:09;4.30;;;2.55;;
67747;SDS011;54543;50.712;6.070;2023-12-28T02:00:35;3.83;;;2.60;;
67747;SDS011;54543;50.712;6.070;2023-12-28T02:03:03;4.65;;;2.53;;
67747;SDS011;54543;50.712;6.070;2023-12-28T02:05:29;5.43;;;2.83;;
67747;SDS011;54543;50.712;6.070;2023-12-28T02:07:55;4.03;;;2.40;;
67747;SDS011;54543;50.712;6.070;2023-12-28T02:10:20;3.67;;;1.98;;
67747;SDS011;54543;50.712;6.070;2023-12-28T02:12:46;3.95;;;2.47;;
67747;SDS011;54543;50.712;6.070;2023-12-28T02:15:12;4.80;;;2.67;;
67747;SDS011;54543;50.712;6.070;2023-12-28T02:17:41;3.97;;;2.28;;
67747;SDS011;54543;50.712;6.070;2023-12-28T02:20:13;4.57;;;2.45;;
67747;SDS011;54543;50.712;6.070;2023-12-28T02:22:40;5.40;;;2.90;;
67747;SDS011;54543;50.712;6.070;2023-12-28T02:27:36;4.15;;;2.20;;
67747;SDS011;54543;50.712;6.070;2023-12-28T02:30:08;3.25;;;2.40;;
67747;SDS011;54543;50.712;6.070;2023-12-28T02:32:47;4.22;;;2.45;;
67747;SDS011;54543;50.712;6.070;2023-12-28T02:35:45;3.83;;;2.40;;
67747;SDS011;54543;50.712;6.070;2023-12-28T02:38:17;4.07;;;2.50;;
67747;SDS011;54543;50.712;6.070;2023-12-28T02:40:44;2.88;;;2.00;;
67747;SDS011;54543;50.712;6.070;2023-12-28T02:43:10;5.57;;;2.72;;
67747;SDS011;54543;50.712;6.070;2023-12-28T02:45:37;3.55;;;2.30;;
67747;SDS011;54543;50.712;6.070;2023-12-28T02:48:03;3.95;;;2.42;;
67747;SDS011;54543;50.712;6.070;2023-12-28T02:50:29;3.17;;;2.20;;
67747;SDS011;54543;50.712;6.070;2023-12-28T02:52:56;3.85;;;2.50;;
67747;SDS011;54543;50.712;6.070;2023-12-28T02:55:22;5.65;;;2.40;;
67747;SDS011;54543;50.712;6.070;2023-12-28T02:57:48;4.50;;;2.40;;
67747;SDS011;54543;50.712;6.070;2023-12-28T03:00:15;3.40;;;2.33;;
67747;SDS011;54543;50.712;6.070;2023-12-28T03:02:41;4.65;;;2.47;;
67747;SDS011;54543;50.712;6.070;2023-12-28T03:05:07;4.00;;;2.17;;
67747;SDS011;54543;50.712;6.070;2023-12-28T03:07:33;2.72;;;2.05;;
67747;SDS011;54543;50.712;6.070;2023-12-28T03:09:59;4.00;;;2.53;;
67747;SDS011;54543;50.712;6.070;2023-12-28T03:12:24;4.68;;;2.33;;
67747;SDS011;54543;50.712;6.070;2023-12-28T03:14:50;4.50;;;2.03;;
67747;SDS011;54543;50.712;6.070;2023-12-28T03:17:16;2.75;;;2.05;;
67747;SDS011;54543;50.712;6.070;2023-12-28T03:19:41;5.22;;;2.33;;
67747;SDS011;54543;50.712;6.070;2023-12-28T03:22:07;3.50;;;2.13;;
67747;SDS011;54543;50.712;6.070;2023-12-28T03:24:32;5.18;;;2.30;;
67747;SDS011;54543;50.712;6.070;2023-12-28T03:26:58;4.75;;;2.50;;
67747;SDS011;54543;50.712;6.070;2023-12-28T03:29:24;4.60;;;2.05;;
67747;SDS011;54543;50.712;6.070;2023-12-28T03:31:50;3.75;;;2.30;;
67747;SDS011;54543;50.712;6.070;2023-12-28T03:34:15;3.55;;;2.10;;
67747;SDS011;54543;50.712;6.070;2023-12-28T03:36:41;4.20;;;2.40;;
67747;SDS011;54543;50.712;6.070;2023-12-28T03:39:07;4.20;;;1.92;;
67747;SDS011;54543;50.712;6.070;2023-12-28T03:41:33;3.78;;;2.20;;
67747;SDS011;54543;50.712;6.070;2023-12-28T03:43:59;2.88;;;1.98;;
67747;SDS011;54543;50.712;6.070;2023-12-28T03:46:25;3.85;;;2.20;;
67747;SDS011;54543;50.712;6.070;2023-12-28T03:48:51;3.90;;;2.25;;
67747;SDS011;54543;50.712;6.070;2023-12-28T03:51:19;3.30;;;2.22;;
67747;SDS011;54543;50.712;6.070;2023-12-28T03:53:44;3.90;;;1.80;;
67747;SDS011;54543;50.712;6.070;2023-12-28T03:56:23;3.90;;;2.10;;
67747;SDS011;54543;50.712;6.070;2023-12-28T03:58:52;5.65;;;2.40;;
67747;SDS011;54543;50.712;6.070;2023-12-28T04:01:19;3.08;;;1.80;;
67747;SDS011;54543;50.712;6.070;2023-12-28T04:03:46;3.80;;;2.10;;
67747;SDS011;54543;50.712;6.070;2023-12-28T04:06:13;7.45;;;2.50;;
67747;SDS011;54543;50.712;6.070;2023-12-28T04:08:39;3.97;;;1.83;;
67747;SDS011;54543;50.712;6.070;2023-12-28T04:11:05;3.05;;;1.70;;
67747;SDS011;54543;50.712;6.070;2023-12-28T04:13:31;4.20;;;2.17;;
67747;SDS011;54543;50.712;6.070;2023-12-28T04:15:56;4.10;;;2.17;;
67747;SDS011;54543;50.712;6.070;2023-12-28T04:18:22;3.15;;;2.00;;
67747;SDS011;54543;50.712;6.070;2023-12-28T04:20:47;4.93;;;2.53;;
67747;SDS011;54543;50.712;6.070;2023-12-28T04:23:14;4.57;;;2.00;;
67747;SDS011;54543;50.712;6.070;2023-12-28T04:25:40;2.95;;;1.88;;
67747;SDS011;54543;50.712;6.070;2023-12-28T04:28:08;4.15;;;2.40;;
67747;SDS011;54543;50.712;6.070;2023-12-28T04:30:34;4.82;;;2.50;;
67747;SDS011;54543;50.712;6.070;2023-12-28T04:33:02;5.20;;;2.63;;
67747;SDS011;54543;50.712;6.070;2023-12-28T04:35:28;3.88;;;2.08;;
67747;SDS011;54543;50.712;6.070;2023-12-28T04:37:54;4.85;;;2.25;;
67747;SDS011;54543;50.712;6.070;2023-12-28T04:40:20;4.85;;;2.80;;
67747;SDS011;54543;50.712;6.070;2023-12-28T04:42:46;4.47;;;2.33;;
67747;SDS011;54543;50.712;6.070;2023-12-28T04:45:11;5.15;;;2.47;;
67747;SDS011;54543;50.712;6.070;2023-12-28T04:47:37;3.65;;;2.38;;
67747;SDS011;54543;50.712;6.070;2023-12-28T04:50:03;6.07;;;2.45;;
67747;SDS011;54543;50.712;6.070;2023-12-28T04:52:30;5.82;;;2.45;;
67747;SDS011;54543;50.712;6.070;2023-12-28T04:54:56;3.55;;;2.10;;
67747;SDS011;54543;50.712;6.070;2023-12-28T04:57:21;4.40;;;2.03;;
67747;SDS011;54543;50.712;6.070;2023-12-28T04:59:49;3.10;;;2.00;;
67747;SDS011;54543;50.712;6.070;2023-12-28T05:02:15;3.90;;;2.38;;
67747;SDS011;54543;50.712;6.070;2023-12-28T05:04:41;4.35;;;2.45;;
67747;SDS011;54543;50.712;6.070;2023-12-28T05:07:07;5.03;;;2.60;;
67747;SDS011;54543;50.712;6.070;2023-12-28T05:09:33;10.25;;;5.60;;
67747;SDS011;54543;50.712;6.070;2023-12-28T05:11:58;12.98;;;9.30;;
67747;SDS011;54543;50.712;6.070;2023-12-28T05:14:24;9.77;;;6.50;;
67747;SDS011;54543;50.712;6.070;2023-12-28T05:16:50;15.63;;;8.07;;
67747;SDS011;54543;50.712;6.070;2023-12-28T05:19:15;12.73;;;8.90;;
67747;SDS011;54543;50.712;6.070;2023-12-28T05:21:41;21.42;;;13.23;;
67747;SDS011;54543;50.712;6.070;2023-12-28T05:24:07;14.38;;;9.18;;
67747;SDS011;54543;50.712;6.070;2023-12-28T05:26:33;13.02;;;7.63;;
67747;SDS011;54543;50.712;6.070;2023-12-28T05:28:58;12.43;;;8.10;;
67747;SDS011;54543;50.712;6.070;2023-12-28T05:31:24;11.38;;;7.55;;
67747;SDS011;54543;50.712;6.070;2023-12-28T05:33:50;12.63;;;7.53;;
67747;SDS011;54543;50.712;6.070;2023-12-28T05:36:15;10.85;;;7.10;;
67747;SDS011;54543;50.712;6.070;2023-12-28T05:38:41;12.13;;;8.15;;
67747;SDS011;54543;50.712;6.070;2023-12-28T05:41:06;25.77;;;16.33;;
67747;SDS011;54543;50.712;6.070;2023-12-28T05:43:34;16.45;;;9.93;;
67747;SDS011;54543;50.712;6.070;2023-12-28T05:46:00;13.05;;;7.82;;
67747;SDS011;54543;50.712;6.070;2023-12-28T05:48:25;19.58;;;10.77;;
67747;SDS011;54543;50.712;6.070;2023-12-28T05:50:51;9.52;;;6.68;;
67747;SDS011;54543;50.712;6.070;2023-12-28T05:53:17;12.75;;;7.78;;
67747;SDS011;54543;50.712;6.070;2023-12-28T05:55:43;14.30;;;7.72;;
67747;SDS011;54543;50.712;6.070;2023-12-28T05:58:11;7.78;;;4.40;;
67747;SDS011;54543;50.712;6.070;2023-12-28T06:00:37;19.30;;;12.10;;
67747;SDS011;54543;50.712;6.070;2023-12-28T06:03:04;14.02;;;8.57;;
67747;SDS011;54543;50.712;6.070;2023-12-28T06:05:30;19.33;;;12.88;;
67747;SDS011;54543;50.712;6.070;2023-12-28T06:07:56;13.73;;;8.75;;
67747;SDS011;54543;50.712;6.070;2023-12-28T06:10:22;16.23;;;8.82;;
67747;SDS011;54543;50.712;6.070;2023-12-28T06:12:49;18.55;;;9.88;;
67747;SDS011;54543;50.712;6.070;2023-12-28T06:15:14;11.02;;;5.75;;
67747;SDS011;54543;50.712;6.070;2023-12-28T06:17:40;33.50;;;12.95;;
67747;SDS011;54543;50.712;6.070;2023-12-28T06:20:05;26.63;;;11.10;;
67747;SDS011;54543;50.712;6.070;2023-12-28T06:22:33;17.35;;;7.40;;
67747;SDS011;54543;50.712;6.070;2023-12-28T06:24:59;32.70;;;11.50;;
67747;SDS011;54543;50.712;6.070;2023-12-28T06:27:24;25.30;;;10.27;;
67747;SDS011;54543;50.712;6.070;2023-12-28T06:29:50;16.50;;;6.72;;
67747;SDS011;54543;50.712;6.070;2023-12-28T06:32:16;28.67;;;11.52;;
67747;SDS011;54543;50.712;6.070;2023-12-28T06:34:41;21.42;;;9.35;;
67747;SDS011;54543;50.712;6.070;2023-12-28T06:37:07;17.70;;;7.35;;
67747;SDS011;54543;50.712;6.070;2023-12-28T06:39:32;20.10;;;8.30;;
67747;SDS011;54543;50.712;6.070;2023-12-28T06:41:58;11.73;;;6.07;;
67747;SDS011;54543;50.712;6.070;2023-12-28T06:44:24;15.60;;;8.93;;
67747;SDS011;54543;50.712;6.070;2023-12-28T06:46:50;24.05;;;9.98;;
67747;SDS011;54543;50.712;6.070;2023-12-28T06:49:16;24.45;;;10.55;;
67747;SDS011;54543;50.712;6.070;2023-12-28T06:51:41;15.15;;;6.20;;
67747;SDS011;54543;50.712;6.070;2023-12-28T06:54:09;16.70;;;7.88;;
67747;SDS011;54543;50.712;6.070;2023-12-28T06:56:34;29.70;;;10.07;;
67747;SDS011;54543;50.712;6.070;2023-12-28T06:59:00;14.02;;;5.75;;
67747;SDS011;54543;50.712;6.070;2023-12-28T07:01:25;7.82;;;4.13;;
67747;SDS011;54543;50.712;6.070;2023-12-28T07:03:51;17.27;;;6.20;;
67747;SDS011;54543;50.712;6.070;2023-12-28T07:06:17;9.88;;;4.40;;
67747;SDS011;54543;50.712;6.070;2023-12-28T07:08:42;10.98;;;5.65;;
67747;SDS011;54543;50.712;6.070;2023-12-28T07:11:11;11.00;;;4.80;;
67747;SDS011;54543;50.712;6.070;2023-12-28T07:13:37;16.35;;;6.22;;
67747;SDS011;54543;50.712;6.070;2023-12-28T07:16:03;15.13;;;5.45;;
67747;SDS011;54543;50.712;6.070;2023-12-28T07:18:28;9.25;;;4.20;;
67747;SDS011;54543;50.712;6.070;2023-12-28T07:20:54;19.17;;;7.05;;
67747;SDS011;54543;50.712;6.070;2023-12-28T07:23:20;21.13;;;7.45;;
67747;SDS011;54543;50.712;6.070;2023-12-28T07:25:45;9.73;;;4.38;;
67747;SDS011;54543;50.712;6.070;2023-12-28T07:28:11;10.63;;;5.82;;
67747;SDS011;54543;50.712;6.070;2023-12-28T07:30:37;12.95;;;6.70;;
67747;SDS011;54543;50.712;6.070;2023-12-28T07:33:03;10.18;;;4.75;;
67747;SDS011;54543;50.712;6.070;2023-12-28T07:35:29;20.17;;;8.85;;
67747;SDS011;54543;50.712;6.070;2023-12-28T07:37:54;12.75;;;5.72;;
67747;SDS011;54543;50.712;6.070;2023-12-28T07:40:20;11.48;;;5.47;;
67747;SDS011;54543;50.712;6.070;2023-12-28T07:42:46;7.22;;;4.35;;
67747;SDS011;54543;50.712;6.070;2023-12-28T07:45:11;5.88;;;3.03;;
67747;SDS011;54543;50.712;6.070;2023-12-28T07:47:37;5.72;;;2.92;;
67747;SDS011;54543;50.712;6.070;2023-12-28T07:50:03;6.68;;;2.90;;
67747;SDS011;54543;50.712;6.070;2023-12-28T07:52:29;11.18;;;4.03;;
67747;SDS011;54543;50.712;6.070;2023-12-28T07:54:54;7.90;;;3.83;;
67747;SDS011;54543;50.712;6.070;2023-12-28T07:57:20;9.80;;;4.43;;
67747;SDS011;54543;50.712;6.070;2023-12-28T07:59:46;9.15;;;3.60;;
67747;SDS011;54543;50.712;6.070;2023-12-28T08:02:12;9.20;;;3.45;;
67747;SDS011;54543;50.712;6.070;2023-12-28T08:04:37;7.28;;;3.35;;
67747;SDS011;54543;50.712;6.070;2023-12-28T08:07:03;7.82;;;4.35;;
67747;SDS011;54543;50.712;6.070;2023-12-28T08:09:29;7.43;;;3.97;;
67747;SDS011;54543;50.712;6.070;2023-12-28T08:11:55;8.32;;;3.33;;
67747;SDS011;54543;50.712;6.070;2023-12-28T08:14:21;8.02;;;5.18;;
67747;SDS011;54543;50.712;6.070;2023-12-28T08:16:47;12.25;;;5.18;;
67747;SDS011;54543;50.712;6.070;2023-12-28T08:19:12;10.30;;;4.50;;
67747;SDS011;54543;50.712;6.070;2023-12-28T08:21:38;9.38;;;3.10;;
67747;SDS011;54543;50.712;6.070;2023-12-28T08:24:04;6.03;;;2.65;;
67747;SDS011;54543;50.712;6.070;2023-12-28T08:26:29;6.20;;;2.85;;
67747;SDS011;54543;50.712;6.070;2023-12-28T08:28:57;12.38;;;4.05;;
67747;SDS011;54543;50.712;6.070;2023-12-28T08:31:23;10.35;;;3.53;;
67747;SDS011;54543;50.712;6.070;2023-12-28T08:33:49;11.45;;;3.58;;
67747;SDS011;54543;50.712;6.070;2023-12-28T08:36:15;5.28;;;2.80;;
67747;SDS011;54543;50.712;6.070;2023-12-28T08:38:42;6.80;;;3.72;;
67747;SDS011;54543;50.712;6.070;2023-12-28T08:41:17;5.47;;;3.08;;
67747;SDS011;54543;50.712;6.070;2023-12-28T08:43:46;11.52;;;3.25;;
67747;SDS011;54543;50.712;6.070;2023-12-28T08:46:12;6.95;;;2.60;;
67747;SDS011;54543;50.712;6.070;2023-12-28T08:48:40;4.47;;;2.45;;
67747;SDS011;54543;50.712;6.070;2023-12-28T08:51:06;4.70;;;2.30;;
67747;SDS011;54543;50.712;6.070;2023-12-28T08:53:32;6.75;;;2.17;;
67747;SDS011;54543;50.712;6.070;2023-12-28T08:55:57;5.80;;;2.10;;
67747;SDS011;54543;50.712;6.070;2023-12-28T08:58:23;6.78;;;2.47;;
67747;SDS011;54543;50.712;6.070;2023-12-28T09:00:48;4.78;;;2.45;;
67747;SDS011;54543;50.712;6.070;2023-12-28T09:03:14;6.03;;;2.53;;
67747;SDS011;54543;50.712;6.070;2023-12-28T09:05:40;6.10;;;2.78;;
67747;SDS011;54543;50.712;6.070;2023-12-28T09:08:05;9.02;;;3.15;;
67747;SDS011;54543;50.712;6.070;2023-12-28T09:10:31;8.07;;;2.70;;
67747;SDS011;54543;50.712;6.070;2023-12-28T09:12:57;5.00;;;1.90;;
67747;SDS011;54543;50.712;6.070;2023-12-28T09:15:22;3.70;;;1.80;;
67747;SDS011;54543;50.712;6.070;2023-12-28T09:17:48;8.25;;;2.70;;
67747;SDS011;54543;50.712;6.070;2023-12-28T09:20:13;5.80;;;2.40;;
67747;SDS011;54543;50.712;6.070;2023-12-28T09:22:39;4.75;;;2.47;;
67747;SDS011;54543;50.712;6.070;2023-12-28T09:25:05;3.95;;;2.00;;
67747;SDS011;54543;50.712;6.070;2023-12-28T09:27:30;8.07;;;2.60;;
67747;SDS011;54543;50.712;6.070;2023-12-28T09:29:56;6.70;;;2.90;;
67747;SDS011;54543;50.712;6.070;2023-12-28T09:32:22;5.72;;;2.00;;
67747;SDS011;54543;50.712;6.070;2023-12-28T09:34:47;8.07;;;2.45;;
67747;SDS011;54543;50.712;6.070;2023-12-28T09:37:13;6.35;;;3.33;;
67747;SDS011;54543;50.712;6.070;2023-12-28T09:39:39;5.07;;;2.47;;
67747;SDS011;54543;50.712;6.070;2023-12-28T09:42:04;5.68;;;2.45;;
67747;SDS011;54543;50.712;6.070;2023-12-28T09:44:34;9.52;;;4.30;;
67747;SDS011;54543;50.712;6.070;2023-12-28T09:47:03;8.25;;;3.92;;
67747;SDS011;54543;50.712;6.070;2023-12-28T09:49:31;8.70;;;4.20;;
67747;SDS011;54543;50.712;6.070;2023-12-28T09:51:58;9.95;;;4.18;;
67747;SDS011;54543;50.712;6.070;2023-12-28T09:54:24;15.55;;;5.55;;
67747;SDS011;54543;50.712;6.070;2023-12-28T09:56:50;14.05;;;5.57;;
67747;SDS011;54543;50.712;6.070;2023-12-28T09:59:15;12.65;;;6.10;;
67747;SDS011;54543;50.712;6.070;2023-12-28T10:01:42;9.60;;;3.90;;
67747;SDS011;54543;50.712;6.070;2023-12-28T10:04:10;11.35;;;5.38;;
67747;SDS011;54543;50.712;6.070;2023-12-28T10:06:36;19.33;;;7.35;;
67747;SDS011;54543;50.712;6.070;2023-12-28T10:09:02;15.02;;;6.30;;
67747;SDS011;54543;50.712;6.070;2023-12-28T10:11:28;17.92;;;6.68;;
67747;SDS011;54543;50.712;6.070;2023-12-28T10:13:54;17.00;;;6.57;;
67747;SDS011;54543;50.712;6.070;2023-12-28T10:16:20;10.10;;;4.53;;
67747;SDS011;54543;50.712;6.070;2023-12-28T10:18:46;22.27;;;6.75;;
67747;SDS011;54543;50.712;6.070;2023-12-28T10:21:11;14.93;;;5.75;;
67747;SDS011;54543;50.712;6.070;2023-12-28T10:23:38;16.42;;;5.85;;
67747;SDS011;54543;50.712;6.070;2023-12-28T10:26:04;15.77;;;6.72;;
67747;SDS011;54543;50.712;6.070;2023-12-28T10:28:39;21.02;;;8.38;;
67747;SDS011;54543;50.712;6.070;2023-12-28T10:31:05;13.20;;;6.15;;
67747;SDS011;54543;50.712;6.070;2023-12-28T10:33:36;10.73;;;4.35;;
67747;SDS011;54543;50.712;6.070;2023-12-28T10:36:04;10.85;;;4.65;;
67747;SDS011;54543;50.712;6.070;2023-12-28T10:38:35;8.88;;;3.20;;
67747;SDS011;54543;50.712;6.070;2023-12-28T10:41:02;8.93;;;3.80;;
67747;SDS011;54543;50.712;6.070;2023-12-28T10:43:31;13.98;;;6.50;;
67747;SDS011;54543;50.712;6.070;2023-12-28T10:46:26;11.82;;;3.75;;
67747;SDS011;54543;50.712;6.070;2023-12-28T10:48:56;10.68;;;4.78;;
67747;SDS011;54543;50.712;6.070;2023-12-28T10:51:24;9.93;;;4.30;;
67747;SDS011;54543;50.712;6.070;2023-12-28T10:56:47;14.98;;;3.70;;
67747;SDS011;54543;50.712;6.070;2023-12-28T11:01:58;6.82;;;3.22;;
67747;SDS011;54543;50.712;6.070;2023-12-28T11:07:08;10.00;;;3.90;;
67747;SDS011;54543;50.712;6.070;2023-12-28T11:09:36;14.02;;;3.40;;
67747;SDS011;54543;50.712;6.070;2023-12-28T11:12:04;9.93;;;3.33;;
67747;SDS011;54543;50.712;6.070;2023-12-28T11:14:33;11.98;;;4.53;;
67747;SDS011;54543;50.712;6.070;2023-12-28T11:17:00;7.85;;;3.50;;
67747;SDS011;54543;50.712;6.070;2023-12-28T11:19:27;12.10;;;4.80;;
67747;SDS011;54543;50.712;6.070;2023-12-28T11:21:55;8.68;;;2.78;;
67747;SDS011;54543;50.712;6.070;2023-12-28T11:24:21;14.75;;;4.38;;
67747;SDS011;54543;50.712;6.070;2023-12-28T11:26:54;9.25;;;3.67;;
67747;SDS011;54543;50.712;6.070;2023-12-28T11:29:21;9.68;;;4.38;;
67747;SDS011;54543;50.712;6.070;2023-12-28T11:34:24;11.75;;;3.10;;
67747;SDS011;54543;50.712;6.070;2023-12-28T11:36:57;10.00;;;3.83;;
67747;SDS011;54543;50.712;6.070;2023-12-28T11:39:34;10.27;;;3.47;;
67747;SDS011;54543;50.712;6.070;2023-12-28T11:42:04;10.05;;;3.25;;
67747;SDS011;54543;50.712;6.070;2023-12-28T11:44:36;8.90;;;3.03;;
67747;SDS011;54543;50.712;6.070;2023-12-28T11:47:20;7.43;;;2.47;;
67747;SDS011;54543;50.712;6.070;2023-12-28T11:49:48;10.48;;;5.38;;
67747;SDS011;54543;50.712;6.070;2023-12-28T11:52:26;6.97;;;2.20;;
67747;SDS011;54543;50.712;6.070;2023-12-28T11:54:53;6.22;;;2.30;;
67747;SDS011;54543;50.712;6.070;2023-12-28T11:57:19;6.60;;;3.15;;
67747;SDS011;54543;50.712;6.070;2023-12-28T11:59:45;7.20;;;2.25;;
67747;SDS011;54543;50.712;6.070;2023-12-28T12:02:12;7.68;;;4.05;;
67747;SDS011;54543;50.712;6.070;2023-12-28T12:04:39;16.88;;;7.35;;
67747;SDS011;54543;50.712;6.070;2023-12-28T12:07:04;11.80;;;5.88;;
67747;SDS011;54543;50.712;6.070;2023-12-28T12:09:30;10.55;;;3.92;;
67747;SDS011;54543;50.712;6.070;2023-12-28T12:12:02;8.95;;;4.75;;
67747;SDS011;54543;50.712;6.070;2023-12-28T12:14:29;6.85;;;3.33;;
67747;SDS011;54543;50.712;6.070;2023-12-28T12:16:55;13.52;;;4.30;;
67747;SDS011;54543;50.712;6.070;2023-12-28T12:19:25;8.00;;;2.78;;
67747;SDS011;54543;50.712;6.070;2023-12-28T12:21:56;8.90;;;3.83;;
67747;SDS011;54543;50.712;6.070;2023-12-28T12:24:23;9.98;;;3.00;;
67747;SDS011;54543;50.712;6.070;2023-12-28T12:26:49;8.70;;;2.67;;
67747;SDS011;54543;50.712;6.070;2023-12-28T12:29:16;5.05;;;2.17;;
67747;SDS011;54543;50.712;6.070;2023-12-28T12:31:42;6.55;;;2.00;;
67747;SDS011;54543;50.712;6.070;2023-12-28T12:34:10;7.05;;;2.63;;
67747;SDS011;54543;50.712;6.070;2023-12-28T12:36:36;7.55;;;2.72;;
67747;SDS011;54543;50.712;6.070;2023-12-28T12:39:03;4.28;;;2.20;;
67747;SDS011;54543;50.712;6.070;2023-12-28T12:41:32;6.53;;;1.98;;
67747;SDS011;54543;50.712;6.070;2023-12-28T12:43:58;9.13;;;2.55;;
67747;SDS011;54543;50.712;6.070;2023-12-28T12:46:24;10.10;;;4.18;;
67747;SDS011;54543;50.712;6.070;2023-12-28T12:51:22;13.18;;;4.03;;
67747;SDS011;54543;50.712;6.070;2023-12-28T12:53:48;6.85;;;3.53;;
67747;SDS011;54543;50.712;6.070;2023-12-28T12:56:14;9.50;;;2.95;;
67747;SDS011;54543;50.712;6.070;2023-12-28T12:58:39;11.55;;;3.85;;
67747;SDS011;54543;50.712;6.070;2023-12-28T13:01:09;7.03;;;2.20;;
67747;SDS011;54543;50.712;6.070;2023-12-28T13:03:36;4.88;;;2.50;;
67747;SDS011;54543;50.712;6.070;2023-12-28T13:06:03;5.15;;;2.15;;
67747;SDS011;54543;50.712;6.070;2023-12-28T13:08:29;6.53;;;3.15;;
67747;SDS011;54543;50.712;6.070;2023-12-28T13:10:55;6.10;;;3.03;;
67747;SDS011;54543;50.712;6.070;2023-12-28T13:13:20;10.35;;;3.97;;
67747;SDS011;54543;50.712;6.070;2023-12-28T13:15:46;8.10;;;3.15;;
67747;SDS011;54543;50.712;6.070;2023-12-28T13:18:12;6.13;;;2.53;;
67747;SDS011;54543;50.712;6.070;2023-12-28T13:20:37;5.85;;;2.63;;
67747;SDS011;54543;50.712;6.070;2023-12-28T13:23:03;9.38;;;3.40;;
67747;SDS011;54543;50.712;6.070;2023-12-28T13:25:28;4.68;;;2.10;;
67747;SDS011;54543;50.712;6.070;2023-12-28T13:27:54;5.63;;;2.35;;
67747;SDS011;54543;50.712;6.070;2023-12-28T13:30:19;6.32;;;2.70;;
67747;SDS011;54543;50.712;6.070;2023-12-28T13:32:47;8.10;;;2.75;;
67747;SDS011;54543;50.712;6.070;2023-12-28T13:35:12;5.90;;;2.38;;
67747;SDS011;54543;50.712;6.070;2023-12-28T13:37:38;6.60;;;3.00;;
67747;SDS011;54543;50.712;6.070;2023-12-28T13:40:04;8.95;;;3.92;;
67747;SDS011;54543;50.712;6.070;2023-12-28T13:42:31;5.30;;;1.88;;
67747;SDS011;54543;50.712;6.070;2023-12-28T13:44:57;6.22;;;1.95;;
67747;SDS011;54543;50.712;6.070;2023-12-28T13:47:23;4.05;;;1.92;;
67747;SDS011;54543;50.712;6.070;2023-12-28T13:49:48;5.35;;;2.38;;
67747;SDS011;54543;50.712;6.070;2023-12-28T13:52:14;7.60;;;2.75;;
67747;SDS011;54543;50.712;6.070;2023-12-28T13:54:40;6.25;;;2.80;;
67747;SDS011;54543;50.712;6.070;2023-12-28T13:57:06;7.07;;;2.80;;
67747;SDS011;54543;50.712;6.070;2023-12-28T13:59:32;6.07;;;3.15;;
67747;SDS011;54543;50.712;6.070;2023-12-28T14:01:58;7.88;;;3.08;;
67747;SDS011;54543;50.712;6.070;2023-12-28T14:04:24;10.05;;;4.65;;
67747;SDS011;54543;50.712;6.070;2023-12-28T14:06:50;9.60;;;4.18;;
67747;SDS011;54543;50.712;6.070;2023-12-28T14:09:15;15.50;;;8.70;;
67747;SDS011;54543;50.712;6.070;2023-12-28T14:11:45;18.05;;;8.98;;
67747;SDS011;54543;50.712;6.070;2023-12-28T14:14:12;23.13;;;12.05;;
67747;SDS011;54543;50.712;6.070;2023-12-28T14:16:37;18.90;;;9.68;;
67747;SDS011;54543;50.712;6.070;2023-12-28T14:19:03;18.02;;;8.75;;
67747;SDS011;54543;50.712;6.070;2023-12-28T14:21:29;19.48;;;10.63;;
67747;SDS011;54543;50.712;6.070;2023-12-28T14:23:59;19.65;;;10.75;;
67747;SDS011;54543;50.712;6.070;2023-12-28T14:26:24;17.88;;;10.13;;
67747;SDS011;54543;50.712;6.070;2023-12-28T14:28:51;11.77;;;7.00;;
67747;SDS011;54543;50.712;6.070;2023-12-28T14:31:16;17.40;;;9.23;;
67747;SDS011;54543;50.712;6.070;2023-12-28T14:33:42;14.88;;;7.82;;
67747;SDS011;54543;50.712;6.070;2023-12-28T14:38:58;17.38;;;7.75;;
67747;SDS011;54543;50.712;6.070;2023-12-28T14:41:27;14.93;;;5.63;;
67747;SDS011;54543;50.712;6.070;2023-12-28T14:43:56;7.78;;;5.28;;
67747;SDS011;54543;50.712;6.070;2023-12-28T14:46:24;18.70;;;10.27;;
67747;SDS011;54543;50.712;6.070;2023-12-28T14:48:50;23.23;;;12.45;;
67747;SDS011;54543;50.712;6.070;2023-12-28T14:51:16;15.50;;;9.52;;
67747;SDS011;54543;50.712;6.070;2023-12-28T14:53:42;12.20;;;7.18;;
67747;SDS011;54543;50.712;6.070;2023-12-28T14:56:08;15.98;;;6.38;;
67747;SDS011;54543;50.712;6.070;2023-12-28T14:58:33;7.10;;;4.20;;